Hovedside
METAR-TAF:

METAR-TAF

Lufthavner :

Lennart Meri Tallinn lufthavn

Tallinn, Estland

breddegrad: 59-23N, lengdegrad: 024-35E, høyde over havet: 44 m

Gjeldene værobservasjon

Denne rapporten ble laget for 25 minutter siden, klokken 10:50 UTC
Vind 23 kt fra Vest
Temperatur 3°C
Luftfuktighet 60%
Trykk 996 hPa
Sikt 10 km eller mer
Få skyer i en høyde av 2900 ft

METAR: EETN 241050Z 28023KT 9999 FEW029 03/M04 Q0996 R08/09//95 NOSIG

Tid: 13:15 (11:15 UTC)

Varsel

Denne rapporten ble laget for 5 timer og 45 minutter siden, klokken 05:30 UTC
Varsel gyldig fra 24. klokken 06 UTC til 25. klokken 06 UTC
Vind 18 kt fra Nordvest med vindkast opp mot 28 kt
Sikt 10 km eller mer
Spredte skyer i en høyde av 3000 ft
Midlertidig
fra 24. klokken 07 UTC til 24. klokken 16 UTC
Vind 20 kt fra Nord-nordvest med vindkast opp mot 34 kt
Blir
fra 24. klokken 18 UTC til 24. klokken 20 UTC
Vind 8 kt fra Vest-nordvest

TAF: EETN 240530Z 2406/2506 31018G28KT 9999 SCT030 TEMPO 2407/2416 33020G34KT BECMG 2418/2420 29008KT

Værobservasjoner og værvarsel for over 4000 flyplasser (METAR- og TAF-rapporter).

Tilgjengelige stasjoner er representert av de røde og gule prikkene på kartet.

Hold musepekeren over prikken for å se navnet på stasjonen.

Klikk så for å se værobservasjoner og -varsler.

For å forandre kartet kan du klikke på den grønne knappen med svart kryss for å zoome inn, på den grønne knappen med strek for å zoome ut, eller på de grønne pilene for å se tilstøtende kart.


METAR-TAF: